HTDA/DAR METAR and TAF weather

Enter ICAO airport designator
Station Type Date Time Source
HTDA METAR 2019/07/17 18:00 UTC NOAA

HTDA 171800Z 14004KT 9999 SCT015 BKN070 25/22 Q1020 NOSIG


Station Type Date Time Source
HTDA Decoded METAR 2019/07/17 18:00 UTC NOAA

Dar Es Salaam Airport, Tanzania (HTDA) 06-52S 039-12E 55M
Jul 17, 2019 - 02:00 PM EDT / 2019.07.17 1800 UTC
Wind: from the SE (140 degrees) at 5 MPH (4 KT):0
Visibility: greater than 7 mile(s):0
Sky conditions: mostly cloudy
Temperature: 77 F (25 C)
Dew Point: 71 F (22 C)
Relative Humidity: 83%
Pressure (altimeter): 30.12 in. Hg (1020 hPa)
ob: HTDA 171800Z 14004KT 9999 SCT015 BKN070 25/22 Q1020 NOSIG
cycle: 18

Station Type Date Time Source
HTDA TAF 2019/07/17 18:42 UTC NOAA

TAF TAF HTDA 171700Z 1718/1824 16010KT 9999 BKN015
TEMPO 1811/1814 RA

Example: see airport list